createdAt,value
2018-06-03T00:01:21.130Z,15.56
2018-06-03T00:03:48.899Z,15.48
2018-06-03T00:06:16.715Z,15.38
2018-06-03T00:08:44.415Z,15.33
2018-06-03T00:11:12.204Z,15.26
2018-06-03T00:13:39.949Z,15.18
2018-06-03T00:16:07.731Z,15.17
2018-06-03T00:18:36.326Z,15.12
2018-06-03T00:21:16.061Z,15.10
2018-06-03T00:23:44.581Z,15.12
2018-06-03T00:26:13.942Z,15.14
2018-06-03T00:28:42.547Z,15.09
2018-06-03T00:31:11.229Z,15.02
2018-06-03T00:33:39.806Z,15.00
2018-06-03T00:36:12.956Z,14.97
2018-06-03T00:38:41.455Z,14.98
2018-06-03T00:41:09.362Z,14.94
2018-06-03T00:43:38.100Z,14.91
2018-06-03T00:46:06.939Z,14.88
2018-06-03T00:48:35.464Z,14.82
2018-06-03T00:51:04.146Z,14.76
2018-06-03T00:53:32.741Z,14.73
2018-06-03T00:56:01.286Z,14.70
2018-06-03T00:58:29.816Z,14.67
2018-06-03T01:00:58.610Z,14.64
2018-06-03T01:03:27.261Z,14.59
2018-06-03T01:05:55.836Z,14.49
2018-06-03T01:08:25.515Z,14.42
2018-06-03T01:10:54.205Z,14.40
2018-06-03T01:13:22.713Z,14.38
2018-06-03T01:15:51.694Z,14.37
2018-06-03T01:18:20.256Z,14.35
2018-06-03T01:20:48.735Z,14.29
2018-06-03T01:23:17.481Z,14.23
2018-06-03T01:25:46.050Z,14.18
2018-06-03T01:28:14.594Z,14.15
2018-06-03T01:30:43.306Z,14.14
2018-06-03T01:33:12.041Z,14.18
2018-06-03T01:35:40.677Z,14.20
2018-06-03T01:38:09.434Z,14.23
2018-06-03T01:40:37.961Z,14.22
2018-06-03T01:43:05.955Z,14.20
2018-06-03T01:45:34.542Z,14.19
2018-06-03T01:48:03.082Z,14.19
2018-06-03T01:50:31.014Z,14.17
2018-06-03T01:52:58.839Z,14.18
2018-06-03T01:55:27.306Z,14.14
2018-06-03T01:57:55.948Z,14.12
2018-06-03T02:00:25.224Z,14.05
2018-06-03T02:02:53.921Z,13.99
2018-06-03T02:05:22.429Z,13.97
2018-06-03T02:07:50.967Z,13.94
2018-06-03T02:10:20.315Z,13.91
2018-06-03T02:12:49.039Z,13.82
2018-06-03T02:15:16.992Z,13.75
2018-06-03T02:17:44.779Z,13.73
2018-06-03T02:20:13.565Z,13.71
2018-06-03T02:22:41.352Z,13.72
2018-06-03T02:25:09.100Z,13.73
2018-06-03T02:27:37.737Z,13.67
2018-06-03T02:30:05.841Z,13.62
2018-06-03T02:32:33.741Z,13.61
2018-06-03T02:35:01.527Z,13.60
2018-06-03T02:37:30.092Z,13.59
2018-06-03T02:39:58.728Z,13.54
2018-06-03T02:42:26.603Z,13.47
2018-06-03T02:44:55.201Z,13.44
2018-06-03T02:47:23.817Z,13.40
2018-06-03T02:49:52.351Z,13.36
2018-06-03T02:52:20.824Z,13.32
2018-06-03T02:54:48.660Z,13.32
2018-06-03T02:57:16.552Z,13.30
2018-06-03T02:59:44.426Z,13.29
2018-06-03T03:02:12.967Z,13.34
2018-06-03T03:04:41.537Z,13.35
2018-06-03T03:07:10.180Z,13.37
2018-06-03T03:09:37.896Z,13.32
2018-06-03T03:12:05.650Z,13.29
2018-06-03T03:14:34.248Z,13.25
2018-06-03T03:17:01.952Z,13.18
2018-06-03T03:19:29.832Z,13.18
2018-06-03T03:21:58.476Z,13.15
2018-06-03T03:24:26.261Z,13.15
2018-06-03T03:26:54.791Z,13.12
2018-06-03T03:29:22.552Z,13.10
2018-06-03T03:31:50.483Z,13.09
2018-06-03T03:34:19.006Z,13.12
2018-06-03T03:36:47.482Z,13.11
2018-06-03T03:39:16.131Z,13.13
2018-06-03T03:41:44.055Z,13.17
2018-06-03T03:44:12.334Z,13.20
2018-06-03T03:46:40.979Z,13.24
2018-06-03T03:49:08.790Z,13.27
2018-06-03T03:51:36.488Z,13.30
2018-06-03T03:54:05.297Z,13.29
2018-06-03T03:56:33.120Z,13.28
2018-06-03T03:59:00.871Z,13.28
2018-06-03T04:01:29.470Z,13.34
2018-06-03T04:03:57.307Z,13.45
2018-06-03T04:06:26.367Z,13.54
2018-06-03T04:08:54.214Z,13.62
2018-06-03T04:11:22.015Z,13.71
2018-06-03T04:13:50.560Z,13.83
2018-06-03T04:16:19.202Z,13.93
2018-06-03T04:18:47.712Z,14.03
2018-06-03T04:21:16.327Z,14.05
2018-06-03T04:23:44.095Z,14.18
2018-06-03T04:26:12.682Z,14.27
2018-06-03T04:28:41.262Z,14.38
2018-06-03T04:31:09.975Z,14.48
2018-06-03T04:33:38.577Z,14.56
2018-06-03T04:36:06.301Z,14.66
2018-06-03T04:38:34.682Z,14.74
2018-06-03T04:41:02.520Z,14.89
2018-06-03T04:43:31.115Z,15.05
2018-06-03T04:45:59.580Z,15.20
2018-06-03T04:48:28.078Z,15.31
2018-06-03T04:50:56.551Z,15.43
2018-06-03T04:53:24.815Z,15.64
2018-06-03T04:55:52.761Z,15.81
2018-06-03T04:58:20.511Z,15.90
2018-06-03T05:00:48.966Z,16.06
2018-06-03T05:03:16.732Z,16.17
2018-06-03T05:05:44.508Z,16.37
2018-06-03T05:08:12.237Z,16.53
2018-06-03T05:10:40.006Z,16.73
2018-06-03T05:13:08.132Z,16.92
2018-06-03T05:15:36.664Z,17.11
2018-06-03T05:18:05.686Z,17.48
2018-06-03T05:20:34.326Z,17.80
2018-06-03T05:23:02.988Z,18.26
2018-06-03T05:25:30.692Z,18.60
2018-06-03T05:27:58.492Z,19.34
2018-06-03T05:30:26.276Z,19.95
2018-06-03T05:32:54.138Z,20.56
2018-06-03T05:35:21.980Z,21.18
2018-06-03T05:37:49.831Z,21.72
2018-06-03T05:40:18.393Z,22.16
2018-06-03T05:42:46.246Z,22.64
2018-06-03T05:45:14.412Z,22.74
2018-06-03T05:47:42.228Z,22.82
2018-06-03T05:50:10.811Z,22.88
2018-06-03T05:52:38.477Z,22.64
2018-06-03T05:55:06.191Z,22.53
2018-06-03T05:57:33.907Z,23.10
2018-06-03T06:00:02.662Z,23.66
2018-06-03T06:02:31.255Z,23.93
2018-06-03T06:04:59.824Z,24.27
2018-06-03T06:07:28.513Z,24.80
2018-06-03T06:09:57.148Z,25.37
2018-06-03T06:12:25.706Z,25.94
2018-06-03T06:14:54.426Z,26.29
2018-06-03T06:17:23.307Z,26.49
2018-06-03T06:19:52.102Z,26.65
2018-06-03T06:22:21.356Z,27.00
2018-06-03T06:24:49.933Z,27.39
2018-06-03T06:27:18.712Z,27.57
2018-06-03T06:29:47.909Z,27.94
2018-06-03T06:32:16.658Z,28.52
2018-06-03T06:34:45.219Z,28.64
2018-06-03T06:37:13.924Z,28.65
2018-06-03T06:39:42.547Z,29.26
2018-06-03T06:42:11.211Z,28.84
2018-06-03T06:44:39.847Z,29.13
2018-06-03T06:47:08.329Z,29.16
2018-06-03T06:49:37.006Z,29.47
2018-06-03T06:52:05.990Z,29.77
2018-06-03T06:54:35.311Z,30.09
2018-06-03T06:57:03.864Z,30.79
2018-06-03T06:59:32.531Z,30.70
2018-06-03T07:02:01.126Z,31.28
2018-06-03T07:04:29.866Z,31.66
2018-06-03T07:06:58.581Z,31.83
2018-06-03T07:09:27.255Z,32.38
2018-06-03T07:11:55.803Z,32.42
2018-06-03T07:14:24.364Z,32.61
2018-06-03T07:16:53.048Z,32.86
2018-06-03T07:19:21.570Z,33.20
2018-06-03T07:21:50.159Z,33.57
2018-06-03T07:24:18.799Z,33.55
2018-06-03T07:26:47.445Z,33.79
2018-06-03T07:29:16.058Z,34.15
2018-06-03T07:31:44.624Z,34.10
2018-06-03T07:34:12.350Z,34.32
2018-06-03T07:36:41.069Z,34.38
2018-06-03T07:39:08.826Z,34.75
2018-06-03T07:41:37.697Z,35.45
2018-06-03T07:44:05.618Z,34.55
2018-06-03T07:46:33.436Z,34.02
2018-06-03T07:49:01.324Z,34.11
2018-06-03T07:51:29.086Z,35.15
2018-06-03T07:53:56.840Z,34.81
2018-06-03T07:56:24.701Z,35.19
2018-06-03T07:58:53.470Z,35.12
2018-06-03T08:01:21.304Z,35.61
2018-06-03T08:03:49.099Z,36.18
2018-06-03T08:06:16.883Z,36.89
2018-06-03T08:08:44.745Z,37.72
2018-06-03T08:11:12.452Z,37.24
2018-06-03T08:13:40.290Z,36.69
2018-06-03T08:16:08.637Z,37.21
2018-06-03T08:18:36.529Z,36.86
2018-06-03T08:21:04.308Z,37.66
2018-06-03T08:23:32.032Z,37.46
2018-06-03T08:25:59.968Z,37.45
2018-06-03T08:28:27.887Z,37.20
2018-06-03T08:30:56.741Z,38.06
2018-06-03T08:33:25.545Z,39.01
2018-06-03T08:35:55.140Z,38.72
2018-06-03T08:38:23.956Z,39.06
2018-06-03T08:40:52.700Z,39.36
2018-06-03T08:43:21.469Z,40.08
2018-06-03T08:45:50.074Z,39.66
2018-06-03T08:48:18.765Z,40.59
2018-06-03T08:50:47.578Z,40.23
2018-06-03T08:53:16.261Z,40.64
2018-06-03T08:55:45.051Z,40.82
2018-06-03T08:58:13.657Z,41.30
2018-06-03T09:00:42.631Z,41.93
2018-06-03T09:03:11.331Z,41.91
2018-06-03T09:05:40.021Z,42.87
2018-06-03T09:08:08.665Z,42.28
2018-06-03T09:10:37.539Z,41.70
2018-06-03T09:13:06.157Z,40.91
2018-06-03T09:15:34.787Z,41.58
2018-06-03T09:18:03.346Z,41.97
2018-06-03T09:20:32.053Z,41.75
2018-06-03T09:23:00.809Z,41.37
2018-06-03T09:25:29.348Z,41.33
2018-06-03T09:27:57.931Z,40.60
2018-06-03T09:30:26.840Z,41.87
2018-06-03T09:32:55.450Z,41.99
2018-06-03T09:35:24.182Z,41.70
2018-06-03T09:37:52.814Z,41.57
2018-06-03T09:40:21.684Z,41.97
2018-06-03T09:42:50.388Z,41.92
2018-06-03T09:45:19.149Z,42.14
2018-06-03T09:47:47.685Z,43.45
2018-06-03T09:50:16.210Z,43.51
2018-06-03T09:52:44.862Z,44.49
2018-06-03T09:55:13.388Z,44.12
2018-06-03T09:57:41.969Z,43.46
2018-06-03T10:00:14.938Z,44.18
2018-06-03T10:02:43.768Z,43.93
2018-06-03T10:05:12.445Z,44.19
2018-06-03T10:07:41.243Z,44.20
2018-06-03T10:10:10.237Z,44.31
2018-06-03T10:12:38.906Z,45.22
2018-06-03T10:15:07.749Z,44.88
2018-06-03T10:17:36.519Z,46.05
2018-06-03T10:20:06.041Z,45.72
2018-06-03T10:22:34.681Z,45.57
2018-06-03T10:25:03.448Z,44.81
2018-06-03T10:27:32.235Z,45.35
2018-06-03T10:30:01.815Z,45.62
2018-06-03T10:32:30.411Z,46.40
2018-06-03T10:34:59.129Z,46.99
2018-06-03T10:37:27.714Z,46.22
2018-06-03T10:39:56.843Z,45.95
2018-06-03T10:42:25.391Z,45.30
2018-06-03T10:44:54.046Z,44.13
2018-06-03T10:47:22.854Z,44.74
2018-06-03T10:49:51.897Z,44.13
2018-06-03T10:52:21.361Z,44.40
2018-06-03T10:54:50.084Z,44.08
2018-06-03T10:57:19.429Z,42.88
2018-06-03T10:59:50.182Z,40.73
2018-06-03T11:02:18.899Z,39.66
2018-06-03T11:04:48.026Z,39.06
2018-06-03T11:07:17.597Z,38.10
2018-06-03T11:09:46.324Z,37.39
2018-06-03T11:12:14.991Z,36.98
2018-06-03T11:14:43.881Z,36.54
2018-06-03T11:17:12.559Z,36.20
2018-06-03T11:19:41.375Z,36.20
2018-06-03T11:22:10.289Z,36.35
2018-06-03T11:24:39.749Z,36.02
2018-06-03T11:27:08.508Z,36.41
2018-06-03T11:29:37.267Z,35.40
2018-06-03T11:32:05.101Z,35.43
2018-06-03T11:34:33.925Z,35.34
2018-06-03T11:37:03.238Z,35.54
2018-06-03T11:39:31.864Z,34.90
2018-06-03T11:41:59.612Z,34.74
2018-06-03T11:44:27.654Z,34.71
2018-06-03T11:46:55.406Z,34.43
2018-06-03T11:49:24.680Z,34.18
2018-06-03T11:51:53.317Z,34.33
2018-06-03T11:54:21.949Z,34.23
2018-06-03T11:57:00.839Z,34.06
2018-06-03T11:59:46.344Z,34.07
2018-06-03T12:02:16.605Z,33.91
2018-06-03T12:04:45.413Z,33.64
2018-06-03T12:07:14.306Z,33.64
2018-06-03T12:09:42.905Z,33.39
2018-06-03T12:12:11.944Z,32.97
2018-06-03T12:14:41.048Z,32.92
2018-06-03T12:17:08.881Z,33.10
2018-06-03T12:19:37.596Z,33.06
2018-06-03T12:22:06.501Z,33.23
2018-06-03T12:24:35.613Z,33.28
2018-06-03T12:27:04.595Z,33.08
2018-06-03T12:29:33.276Z,32.87
2018-06-03T12:32:01.840Z,33.09
2018-06-03T12:34:30.522Z,32.99
2018-06-03T12:36:59.227Z,32.76
2018-06-03T12:39:27.837Z,32.84
2018-06-03T12:41:57.056Z,32.68
2018-06-03T12:44:26.612Z,32.32
2018-06-03T12:46:54.562Z,31.97
2018-06-03T12:49:22.362Z,31.72
2018-06-03T12:51:50.277Z,31.60
2018-06-03T12:54:18.182Z,31.66
2018-06-03T12:56:46.886Z,31.80
2018-06-03T12:59:15.590Z,32.12
2018-06-03T13:01:43.439Z,32.03
2018-06-03T13:04:12.751Z,32.05
2018-06-03T13:06:41.361Z,31.65
2018-06-03T13:09:10.062Z,31.26
2018-06-03T13:11:38.970Z,31.00
2018-06-03T13:14:06.916Z,31.29
2018-06-03T13:16:35.540Z,31.30
2018-06-03T13:19:03.334Z,31.59
2018-06-03T13:21:32.229Z,31.77
2018-06-03T13:23:59.975Z,31.88
2018-06-03T13:26:29.031Z,31.74
2018-06-03T13:28:56.795Z,31.39
2018-06-03T13:31:24.682Z,31.00
2018-06-03T13:33:53.340Z,30.73
2018-06-03T13:36:22.110Z,30.41
2018-06-03T13:38:49.914Z,30.26
2018-06-03T13:41:18.205Z,29.97
2018-06-03T13:43:47.172Z,30.22
2018-06-03T13:46:15.790Z,30.32
2018-06-03T13:48:43.772Z,30.30
2018-06-03T13:51:12.612Z,30.24
2018-06-03T13:53:41.296Z,30.16
2018-06-03T13:56:10.050Z,30.14
2018-06-03T13:58:38.797Z,30.06
2018-06-03T14:01:07.722Z,30.19
2018-06-03T14:03:35.640Z,30.37
2018-06-03T14:06:03.530Z,30.54
2018-06-03T14:08:32.650Z,30.64
2018-06-03T14:11:01.491Z,30.56
2018-06-03T14:13:30.093Z,30.49
2018-06-03T14:15:59.586Z,30.36
2018-06-03T14:18:27.496Z,30.45
2018-06-03T14:20:55.322Z,30.38
2018-06-03T14:23:24.338Z,30.14
2018-06-03T14:25:52.323Z,30.01
2018-06-03T14:28:20.291Z,29.87
2018-06-03T14:30:48.175Z,29.90
2018-06-03T14:33:16.940Z,29.84
2018-06-03T14:35:45.499Z,29.71
2018-06-03T14:38:13.432Z,29.70
2018-06-03T14:40:42.285Z,29.55
2018-06-03T14:43:10.062Z,29.43
2018-06-03T14:45:38.210Z,29.37
2018-06-03T14:48:06.121Z,29.12
2018-06-03T14:50:34.969Z,29.16
2018-06-03T14:53:03.457Z,29.22
2018-06-03T14:55:32.327Z,29.24
2018-06-03T14:58:00.953Z,29.36
2018-06-03T15:00:30.024Z,29.51
2018-06-03T15:02:58.016Z,29.81
2018-06-03T15:05:26.613Z,30.09
2018-06-03T15:07:55.697Z,30.32
2018-06-03T15:10:24.351Z,30.61
2018-06-03T15:12:53.204Z,30.84
2018-06-03T15:15:21.889Z,31.13
2018-06-03T15:17:50.711Z,31.35
2018-06-03T15:20:19.616Z,31.54
2018-06-03T15:22:48.220Z,31.85
2018-06-03T15:25:16.863Z,31.92
2018-06-03T15:27:45.538Z,31.78
2018-06-03T15:30:15.132Z,31.38
2018-06-03T15:32:43.823Z,31.19
2018-06-03T15:35:12.640Z,30.85
2018-06-03T15:37:41.213Z,30.75
2018-06-03T15:40:09.981Z,30.65
2018-06-03T15:42:38.817Z,30.67
2018-06-03T15:45:07.737Z,30.68
2018-06-03T15:47:36.511Z,30.59
2018-06-03T15:50:05.301Z,30.35
2018-06-03T15:52:34.003Z,30.24
2018-06-03T15:55:02.784Z,30.11
2018-06-03T15:57:31.669Z,29.96
2018-06-03T15:59:59.722Z,29.81
2018-06-03T16:02:28.289Z,29.68
2018-06-03T16:04:56.206Z,29.49
2018-06-03T16:07:24.899Z,29.33
2018-06-03T16:09:53.531Z,29.20
2018-06-03T16:12:22.259Z,28.96
2018-06-03T16:14:50.053Z,28.85
2018-06-03T16:17:18.840Z,28.79
2018-06-03T16:19:47.561Z,28.68
2018-06-03T16:22:16.877Z,28.64
2018-06-03T16:24:45.485Z,28.58
2018-06-03T16:27:14.105Z,28.51
2018-06-03T16:29:43.244Z,28.44
2018-06-03T16:32:11.200Z,28.34
2018-06-03T16:34:39.778Z,28.27
2018-06-03T16:37:08.561Z,28.24
2018-06-03T16:39:37.153Z,28.17
2018-06-03T16:42:05.907Z,28.04
2018-06-03T16:44:34.645Z,28.02
2018-06-03T16:47:03.441Z,27.99
2018-06-03T16:49:32.080Z,27.96
2018-06-03T16:52:01.290Z,27.87
2018-06-03T16:54:30.279Z,27.80
2018-06-03T16:56:58.907Z,27.70
2018-06-03T16:59:27.565Z,27.66
2018-06-03T17:01:56.158Z,27.61
2018-06-03T17:04:24.845Z,27.60
2018-06-03T17:06:53.552Z,27.56
2018-06-03T17:09:22.322Z,27.48
2018-06-03T17:11:50.969Z,27.36
2018-06-03T17:14:19.941Z,27.20
2018-06-03T17:16:48.527Z,27.18
2018-06-03T17:19:17.262Z,27.12
2018-06-03T17:21:46.545Z,27.05
2018-06-03T17:24:15.538Z,26.97
2018-06-03T17:26:44.398Z,26.85
2018-06-03T17:29:13.316Z,26.70
2018-06-03T17:31:42.239Z,26.58
2018-06-03T17:34:11.033Z,26.44
2018-06-03T17:36:38.858Z,26.32
2018-06-03T17:39:08.863Z,26.16
2018-06-03T17:41:37.708Z,25.97
2018-06-03T17:44:07.355Z,25.84
2018-06-03T17:46:36.757Z,25.74
2018-06-03T17:49:04.727Z,25.60
2018-06-03T17:51:32.820Z,25.50
2018-06-03T17:54:00.799Z,25.44
2018-06-03T17:56:30.219Z,25.37
2018-06-03T17:58:59.004Z,25.25
2018-06-03T18:01:26.826Z,25.14
2018-06-03T18:03:55.201Z,25.07
2018-06-03T18:06:23.324Z,24.99
2018-06-03T18:08:52.427Z,24.96
2018-06-03T18:11:21.084Z,24.88
2018-06-03T18:13:50.274Z,24.79
2018-06-03T18:16:18.527Z,24.74
2018-06-03T18:18:47.668Z,24.67
2018-06-03T18:21:15.784Z,24.58
2018-06-03T18:23:44.190Z,24.52
2018-06-03T18:26:12.457Z,24.45
2018-06-03T18:28:40.940Z,24.37
2018-06-03T18:31:09.147Z,24.24
2018-06-03T18:33:37.573Z,24.09
2018-06-03T18:36:05.902Z,23.96
2018-06-03T18:38:34.085Z,23.83
2018-06-03T18:41:02.294Z,23.67
2018-06-03T18:43:30.128Z,23.54
2018-06-03T18:45:58.228Z,23.40
2018-06-03T18:48:27.093Z,23.31
2018-06-03T18:50:55.739Z,23.23
2018-06-03T18:53:24.552Z,23.11
2018-06-03T18:55:53.333Z,22.94
2018-06-03T18:58:21.868Z,22.79
2018-06-03T19:00:49.949Z,22.60
2018-06-03T19:03:18.257Z,22.48
2018-06-03T19:05:46.465Z,22.34
2018-06-03T19:08:14.547Z,22.28
2018-06-03T19:10:42.879Z,22.14
2018-06-03T19:13:11.237Z,22.01
2018-06-03T19:15:39.818Z,21.86
2018-06-03T19:18:08.073Z,21.71
2018-06-03T19:20:36.765Z,21.64
2018-06-03T19:23:05.470Z,21.53
2018-06-03T19:25:34.035Z,21.40
2018-06-03T19:28:02.506Z,21.28
2018-06-03T19:30:30.719Z,21.20
2018-06-03T19:32:58.558Z,21.10
2018-06-03T19:35:26.863Z,20.95
2018-06-03T19:37:55.246Z,20.82
2018-06-03T19:40:23.240Z,20.71
2018-06-03T19:42:51.226Z,20.58
2018-06-03T19:45:19.389Z,20.45
2018-06-03T19:47:47.484Z,20.34
2018-06-03T19:50:15.859Z,20.25
2018-06-03T19:52:44.129Z,20.09
2018-06-03T19:55:12.100Z,19.96
2018-06-03T19:57:40.403Z,19.89
2018-06-03T20:00:09.372Z,19.85
2018-06-03T20:02:38.004Z,19.83
2018-06-03T20:05:06.253Z,19.75
2018-06-03T20:07:34.123Z,19.67
2018-06-03T20:10:03.173Z,19.69
2018-06-03T20:12:31.354Z,19.58
2018-06-03T20:14:59.410Z,19.46
2018-06-03T20:17:27.293Z,19.38
2018-06-03T20:19:55.242Z,19.29
2018-06-03T20:22:23.783Z,19.23
2018-06-03T20:24:51.684Z,19.16
2018-06-03T20:27:19.814Z,19.10
2018-06-03T20:29:47.606Z,19.01
2018-06-03T20:32:15.469Z,19.02
2018-06-03T20:34:43.263Z,18.96
2018-06-03T20:37:11.353Z,18.85
2018-06-03T20:39:39.310Z,18.76
2018-06-03T20:42:07.068Z,18.71
2018-06-03T20:44:35.124Z,18.71
2018-06-03T20:47:03.033Z,18.66
2018-06-03T20:49:31.619Z,18.64
2018-06-03T20:51:59.744Z,18.59
2018-06-03T20:54:27.626Z,18.48
2018-06-03T20:56:56.328Z,18.42
2018-06-03T20:59:25.599Z,18.28
2018-06-03T21:01:54.458Z,18.18
2018-06-03T21:04:23.096Z,18.16
2018-06-03T21:06:50.872Z,18.12
2018-06-03T21:09:19.413Z,18.05
2018-06-03T21:11:47.359Z,17.94
2018-06-03T21:14:16.257Z,17.90
2018-06-03T21:16:45.194Z,17.81
2018-06-03T21:19:14.194Z,17.73
2018-06-03T21:21:42.992Z,17.70
2018-06-03T21:24:11.849Z,17.72
2018-06-03T21:26:40.563Z,17.70
2018-06-03T21:29:09.164Z,17.63
2018-06-03T21:31:36.920Z,17.62
2018-06-03T21:34:04.883Z,17.59
2018-06-03T21:36:32.694Z,17.52
2018-06-03T21:39:00.528Z,17.45
2018-06-03T21:41:28.310Z,17.39
2018-06-03T21:43:56.052Z,17.33
2018-06-03T21:46:23.777Z,17.24
2018-06-03T21:48:51.623Z,17.17
2018-06-03T21:51:19.482Z,17.11
2018-06-03T21:53:47.399Z,17.07
2018-06-03T21:56:15.213Z,16.98
2018-06-03T21:58:43.005Z,16.97
2018-06-03T22:01:10.763Z,16.98
2018-06-03T22:03:39.535Z,16.99
2018-06-03T22:06:08.134Z,16.95
2018-06-03T22:08:35.844Z,16.88
2018-06-03T22:11:04.319Z,16.83
2018-06-03T22:13:32.019Z,16.85
2018-06-03T22:15:59.864Z,16.83
2018-06-03T22:18:27.865Z,16.78
2018-06-03T22:20:56.423Z,16.72
2018-06-03T22:23:24.969Z,16.68
2018-06-03T22:25:53.249Z,16.60
2018-06-03T22:28:21.778Z,16.54
2018-06-03T22:30:49.559Z,16.53
2018-06-03T22:33:17.338Z,16.49
2018-06-03T22:35:46.120Z,16.51
2018-06-03T22:38:14.004Z,16.43
2018-06-03T22:40:42.795Z,16.38
2018-06-03T22:43:11.505Z,16.30
2018-06-03T22:45:40.283Z,16.22
2018-06-03T22:48:08.140Z,16.18
2018-06-03T22:50:36.678Z,16.22
2018-06-03T22:53:05.264Z,16.24
2018-06-03T22:55:33.817Z,16.22
2018-06-03T22:58:03.238Z,16.21
2018-06-03T23:00:33.543Z,16.19
2018-06-03T23:03:07.588Z,16.20
2018-06-03T23:05:36.555Z,16.17
2018-06-03T23:08:05.156Z,16.09
2018-06-03T23:10:33.665Z,16.04
2018-06-03T23:13:02.481Z,16.02
2018-06-03T23:15:30.368Z,15.99
2018-06-03T23:17:59.038Z,15.97
2018-06-03T23:20:27.634Z,15.95
2018-06-03T23:22:55.359Z,15.87
2018-06-03T23:25:24.028Z,15.81
2018-06-03T23:27:52.589Z,15.79
2018-06-03T23:30:21.344Z,15.80
2018-06-03T23:32:49.828Z,15.82
2018-06-03T23:35:18.438Z,15.79
2018-06-03T23:37:46.125Z,15.71
2018-06-03T23:40:13.894Z,15.68
2018-06-03T23:42:42.478Z,15.66
2018-06-03T23:45:11.775Z,15.65
2018-06-03T23:47:40.366Z,15.60
2018-06-03T23:50:09.019Z,15.51
2018-06-03T23:52:37.710Z,15.43
2018-06-03T23:55:05.659Z,15.36
2018-06-03T23:57:33.570Z,15.33
